CYSF

Stony Rapids Airport

Stony Rapids, Saskatchewan, Canada
METAR CYSF 171000Z AUTO 13005KT 9SM CLR M21/M23 A2977 RMK SLP108
Observed Flight Rules
Jan-17 @ 10:00 UTC (57 minutes ago) Visual Flight Rules
Wind Visibility Clouds
130° at 5 knots 9 miles
  • Clear skies
Temperatures Readings
Current -21°C / -6°F
Dewpoint -23°C / -9°F
Humidity 84%
Altimeter 29.77" Hg
Pressure 1010.8 hPa
Elevation 250
METAR CYSF 171000Z AUTO 13005KT 9SM CLR M21/M23 A2977 RMK SLP108
Observed Flight Rules
Jan-17 @ 10:00 UTC
(57 minutes ago)
VFR
Wind Visibility
130° at 5 knots 9 miles
Clouds
  • Clear skies
Temperature Dewpoint
-21°C / -6°F -23°C / -9°F
Humidity Altimeter Pressure
84% 29.77" Hg 1010.8 hPa